sensor_id;sensor_type;location;lat;lon;timestamp;P1;durP1;ratioP1;P2;durP2;ratioP2
28529;SDS011;15737;49.760;6.632;2023-07-13T00:04:37;0.57;;;0.57;;
28529;SDS011;15737;49.760;6.632;2023-07-13T00:07:02;0.70;;;0.70;;
28529;SDS011;15737;49.760;6.632;2023-07-13T00:09:28;2.30;;;0.80;;
28529;SDS011;15737;49.760;6.632;2023-07-13T00:11:54;0.73;;;0.73;;
28529;SDS011;15737;49.760;6.632;2023-07-13T00:14:22;0.77;;;0.77;;
28529;SDS011;15737;49.760;6.632;2023-07-13T00:16:49;1.00;;;0.67;;
28529;SDS011;15737;49.760;6.632;2023-07-13T00:19:15;1.33;;;0.50;;
28529;SDS011;15737;49.760;6.632;2023-07-13T00:21:40;0.97;;;0.73;;
28529;SDS011;15737;49.760;6.632;2023-07-13T00:24:07;0.80;;;0.80;;
28529;SDS011;15737;49.760;6.632;2023-07-13T00:26:37;0.90;;;0.70;;
28529;SDS011;15737;49.760;6.632;2023-07-13T00:29:04;0.70;;;0.70;;
28529;SDS011;15737;49.760;6.632;2023-07-13T00:31:33;0.70;;;0.70;;
28529;SDS011;15737;49.760;6.632;2023-07-13T00:36:31;1.03;;;0.80;;
28529;SDS011;15737;49.760;6.632;2023-07-13T00:38:56;1.03;;;0.90;;
28529;SDS011;15737;49.760;6.632;2023-07-13T00:41:22;1.03;;;0.77;;
28529;SDS011;15737;49.760;6.632;2023-07-13T00:43:47;0.97;;;0.80;;
28529;SDS011;15737;49.760;6.632;2023-07-13T00:46:18;0.67;;;0.67;;
28529;SDS011;15737;49.760;6.632;2023-07-13T00:48:47;0.70;;;0.70;;
28529;SDS011;15737;49.760;6.632;2023-07-13T00:51:13;0.80;;;0.80;;
28529;SDS011;15737;49.760;6.632;2023-07-13T00:53:42;0.73;;;0.73;;
28529;SDS011;15737;49.760;6.632;2023-07-13T00:56:08;1.53;;;0.70;;
28529;SDS011;15737;49.760;6.632;2023-07-13T00:58:35;2.33;;;0.80;;
28529;SDS011;15737;49.760;6.632;2023-07-13T01:01:01;1.43;;;0.87;;
28529;SDS011;15737;49.760;6.632;2023-07-13T01:03:29;0.80;;;0.80;;
28529;SDS011;15737;49.760;6.632;2023-07-13T01:05:55;0.70;;;0.70;;
28529;SDS011;15737;49.760;6.632;2023-07-13T01:08:21;3.13;;;1.07;;
28529;SDS011;15737;49.760;6.632;2023-07-13T01:10:51;1.07;;;0.90;;
28529;SDS011;15737;49.760;6.632;2023-07-13T01:13:18;0.80;;;0.80;;
28529;SDS011;15737;49.760;6.632;2023-07-13T01:15:45;0.50;;;0.50;;
28529;SDS011;15737;49.760;6.632;2023-07-13T01:18:14;1.70;;;0.60;;
28529;SDS011;15737;49.760;6.632;2023-07-13T01:20:55;0.70;;;0.70;;
28529;SDS011;15737;49.760;6.632;2023-07-13T01:23:22;0.70;;;0.70;;
28529;SDS011;15737;49.760;6.632;2023-07-13T01:25:49;1.47;;;0.90;;
28529;SDS011;15737;49.760;6.632;2023-07-13T01:28:16;1.13;;;1.00;;
28529;SDS011;15737;49.760;6.632;2023-07-13T01:30:42;2.03;;;0.93;;
28529;SDS011;15737;49.760;6.632;2023-07-13T01:33:10;0.80;;;0.70;;
28529;SDS011;15737;49.760;6.632;2023-07-13T01:35:37;1.60;;;0.90;;
28529;SDS011;15737;49.760;6.632;2023-07-13T01:43:06;0.90;;;0.77;;
28529;SDS011;15737;49.760;6.632;2023-07-13T01:45:31;0.97;;;0.80;;
28529;SDS011;15737;49.760;6.632;2023-07-13T01:47:57;0.80;;;0.80;;
28529;SDS011;15737;49.760;6.632;2023-07-13T01:50:23;1.73;;;1.10;;
28529;SDS011;15737;49.760;6.632;2023-07-13T01:52:50;1.00;;;0.73;;
28529;SDS011;15737;49.760;6.632;2023-07-13T01:55:15;0.70;;;0.70;;
28529;SDS011;15737;49.760;6.632;2023-07-13T01:57:41;1.60;;;0.67;;
28529;SDS011;15737;49.760;6.632;2023-07-13T02:00:08;1.47;;;0.70;;
28529;SDS011;15737;49.760;6.632;2023-07-13T02:02:35;0.70;;;0.70;;
28529;SDS011;15737;49.760;6.632;2023-07-13T02:05:00;0.87;;;0.67;;
28529;SDS011;15737;49.760;6.632;2023-07-13T02:07:26;2.73;;;0.83;;
28529;SDS011;15737;49.760;6.632;2023-07-13T02:09:51;1.30;;;0.70;;
28529;SDS011;15737;49.760;6.632;2023-07-13T02:12:17;1.33;;;0.80;;
28529;SDS011;15737;49.760;6.632;2023-07-13T02:14:42;0.60;;;0.60;;
28529;SDS011;15737;49.760;6.632;2023-07-13T02:17:09;1.90;;;0.93;;
28529;SDS011;15737;49.760;6.632;2023-07-13T02:19:35;0.87;;;0.63;;
28529;SDS011;15737;49.760;6.632;2023-07-13T02:22:01;0.70;;;0.70;;
28529;SDS011;15737;49.760;6.632;2023-07-13T02:24:26;0.67;;;0.67;;
28529;SDS011;15737;49.760;6.632;2023-07-13T02:26:52;0.67;;;0.67;;
28529;SDS011;15737;49.760;6.632;2023-07-13T02:29:18;1.50;;;0.60;;
28529;SDS011;15737;49.760;6.632;2023-07-13T02:31:43;3.23;;;1.00;;
28529;SDS011;15737;49.760;6.632;2023-07-13T02:34:09;1.10;;;0.97;;
28529;SDS011;15737;49.760;6.632;2023-07-13T02:36:34;0.83;;;0.83;;
28529;SDS011;15737;49.760;6.632;2023-07-13T02:39:00;0.50;;;0.50;;
28529;SDS011;15737;49.760;6.632;2023-07-13T02:41:27;0.80;;;0.80;;
28529;SDS011;15737;49.760;6.632;2023-07-13T02:43:53;0.67;;;0.67;;
28529;SDS011;15737;49.760;6.632;2023-07-13T02:46:19;1.33;;;0.80;;
28529;SDS011;15737;49.760;6.632;2023-07-13T02:48:45;1.33;;;1.03;;
28529;SDS011;15737;49.760;6.632;2023-07-13T02:51:11;1.20;;;0.93;;
28529;SDS011;15737;49.760;6.632;2023-07-13T02:53:37;5.23;;;1.10;;
28529;SDS011;15737;49.760;6.632;2023-07-13T02:56:03;0.90;;;0.90;;
28529;SDS011;15737;49.760;6.632;2023-07-13T02:58:29;2.07;;;0.83;;
28529;SDS011;15737;49.760;6.632;2023-07-13T03:00:55;0.70;;;0.70;;
28529;SDS011;15737;49.760;6.632;2023-07-13T03:03:22;0.80;;;0.80;;
28529;SDS011;15737;49.760;6.632;2023-07-13T03:05:57;2.50;;;0.70;;
28529;SDS011;15737;49.760;6.632;2023-07-13T03:08:25;0.87;;;0.63;;
28529;SDS011;15737;49.760;6.632;2023-07-13T03:13:37;0.80;;;0.80;;
28529;SDS011;15737;49.760;6.632;2023-07-13T03:16:03;0.90;;;0.90;;
28529;SDS011;15737;49.760;6.632;2023-07-13T03:18:29;2.37;;;0.80;;
28529;SDS011;15737;49.760;6.632;2023-07-13T03:20:55;1.10;;;0.60;;
28529;SDS011;15737;49.760;6.632;2023-07-13T03:23:21;1.20;;;1.10;;
28529;SDS011;15737;49.760;6.632;2023-07-13T03:25:47;0.97;;;0.93;;
28529;SDS011;15737;49.760;6.632;2023-07-13T03:28:13;1.13;;;0.70;;
28529;SDS011;15737;49.760;6.632;2023-07-13T03:30:39;0.93;;;0.70;;
28529;SDS011;15737;49.760;6.632;2023-07-13T03:33:05;0.80;;;0.80;;
28529;SDS011;15737;49.760;6.632;2023-07-13T03:35:31;0.60;;;0.60;;
28529;SDS011;15737;49.760;6.632;2023-07-13T03:37:57;0.80;;;0.80;;
28529;SDS011;15737;49.760;6.632;2023-07-13T03:40:24;0.77;;;0.77;;
28529;SDS011;15737;49.760;6.632;2023-07-13T03:42:51;0.70;;;0.70;;
28529;SDS011;15737;49.760;6.632;2023-07-13T03:45:17;1.60;;;0.70;;
28529;SDS011;15737;49.760;6.632;2023-07-13T03:47:42;1.73;;;0.80;;
28529;SDS011;15737;49.760;6.632;2023-07-13T03:50:08;1.40;;;0.97;;
28529;SDS011;15737;49.760;6.632;2023-07-13T03:52:34;0.70;;;0.60;;
28529;SDS011;15737;49.760;6.632;2023-07-13T03:54:59;0.80;;;0.80;;
28529;SDS011;15737;49.760;6.632;2023-07-13T03:57:25;0.80;;;0.80;;
28529;SDS011;15737;49.760;6.632;2023-07-13T03:59:51;0.90;;;0.90;;
28529;SDS011;15737;49.760;6.632;2023-07-13T04:02:16;0.90;;;0.90;;
28529;SDS011;15737;49.760;6.632;2023-07-13T04:04:42;10.60;;;1.07;;
28529;SDS011;15737;49.760;6.632;2023-07-13T04:07:08;0.80;;;0.80;;
28529;SDS011;15737;49.760;6.632;2023-07-13T04:09:34;2.67;;;0.80;;
28529;SDS011;15737;49.760;6.632;2023-07-13T04:12:00;0.60;;;0.60;;
28529;SDS011;15737;49.760;6.632;2023-07-13T04:14:26;0.83;;;0.60;;
28529;SDS011;15737;49.760;6.632;2023-07-13T04:17:00;1.83;;;0.80;;
28529;SDS011;15737;49.760;6.632;2023-07-13T04:19:25;0.87;;;0.50;;
28529;SDS011;15737;49.760;6.632;2023-07-13T04:21:51;0.60;;;0.60;;
28529;SDS011;15737;49.760;6.632;2023-07-13T04:24:16;0.30;;;0.30;;
28529;SDS011;15737;49.760;6.632;2023-07-13T04:26:42;1.67;;;0.90;;
28529;SDS011;15737;49.760;6.632;2023-07-13T04:29:07;0.70;;;0.70;;
28529;SDS011;15737;49.760;6.632;2023-07-13T04:31:33;2.60;;;0.80;;
28529;SDS011;15737;49.760;6.632;2023-07-13T04:33:59;0.80;;;0.70;;
28529;SDS011;15737;49.760;6.632;2023-07-13T04:36:24;1.10;;;0.60;;
28529;SDS011;15737;49.760;6.632;2023-07-13T04:38:53;0.60;;;0.60;;
28529;SDS011;15737;49.760;6.632;2023-07-13T04:41:20;0.70;;;0.60;;
28529;SDS011;15737;49.760;6.632;2023-07-13T04:43:45;0.80;;;0.63;;
28529;SDS011;15737;49.760;6.632;2023-07-13T04:46:12;1.70;;;0.83;;
28529;SDS011;15737;49.760;6.632;2023-07-13T04:48:39;0.53;;;0.53;;
28529;SDS011;15737;49.760;6.632;2023-07-13T04:51:05;0.50;;;0.50;;
28529;SDS011;15737;49.760;6.632;2023-07-13T04:53:30;3.43;;;0.63;;
28529;SDS011;15737;49.760;6.632;2023-07-13T04:55:57;1.20;;;0.70;;
28529;SDS011;15737;49.760;6.632;2023-07-13T04:58:23;2.73;;;0.60;;
28529;SDS011;15737;49.760;6.632;2023-07-13T05:00:49;2.07;;;0.77;;
28529;SDS011;15737;49.760;6.632;2023-07-13T05:03:15;0.50;;;0.50;;
28529;SDS011;15737;49.760;6.632;2023-07-13T05:05:41;1.03;;;0.40;;
28529;SDS011;15737;49.760;6.632;2023-07-13T05:08:06;1.90;;;1.00;;
28529;SDS011;15737;49.760;6.632;2023-07-13T05:10:32;0.63;;;0.63;;
28529;SDS011;15737;49.760;6.632;2023-07-13T05:12:58;0.50;;;0.50;;
28529;SDS011;15737;49.760;6.632;2023-07-13T05:15:23;0.83;;;0.50;;
28529;SDS011;15737;49.760;6.632;2023-07-13T05:17:50;0.47;;;0.47;;
28529;SDS011;15737;49.760;6.632;2023-07-13T05:22:49;0.83;;;0.60;;
28529;SDS011;15737;49.760;6.632;2023-07-13T05:25:15;1.20;;;0.60;;
28529;SDS011;15737;49.760;6.632;2023-07-13T05:27:41;0.40;;;0.40;;
28529;SDS011;15737;49.760;6.632;2023-07-13T05:30:06;1.35;;;0.40;;
28529;SDS011;15737;49.760;6.632;2023-07-13T05:32:35;0.65;;;0.50;;
28529;SDS011;15737;49.760;6.632;2023-07-13T05:35:01;0.47;;;0.47;;
28529;SDS011;15737;49.760;6.632;2023-07-13T05:37:27;0.40;;;0.40;;
28529;SDS011;15737;49.760;6.632;2023-07-13T05:39:53;1.20;;;0.60;;
28529;SDS011;15737;49.760;6.632;2023-07-13T05:42:18;2.28;;;0.60;;
28529;SDS011;15737;49.760;6.632;2023-07-13T05:44:44;1.45;;;0.55;;
28529;SDS011;15737;49.760;6.632;2023-07-13T05:47:09;1.33;;;0.57;;
28529;SDS011;15737;49.760;6.632;2023-07-13T05:49:35;2.85;;;0.50;;
28529;SDS011;15737;49.760;6.632;2023-07-13T05:52:00;1.42;;;0.50;;
28529;SDS011;15737;49.760;6.632;2023-07-13T05:54:26;1.85;;;0.50;;
28529;SDS011;15737;49.760;6.632;2023-07-13T05:56:52;0.40;;;0.32;;
28529;SDS011;15737;49.760;6.632;2023-07-13T05:59:17;2.85;;;0.55;;
28529;SDS011;15737;49.760;6.632;2023-07-13T06:01:43;0.98;;;0.63;;
28529;SDS011;15737;49.760;6.632;2023-07-13T06:04:08;1.05;;;0.50;;
28529;SDS011;15737;49.760;6.632;2023-07-13T06:06:34;1.85;;;0.50;;
28529;SDS011;15737;49.760;6.632;2023-07-13T06:08:59;4.53;;;0.93;;
28529;SDS011;15737;49.760;6.632;2023-07-13T06:11:25;1.08;;;0.40;;
28529;SDS011;15737;49.760;6.632;2023-07-13T06:13:52;1.95;;;0.70;;
28529;SDS011;15737;49.760;6.632;2023-07-13T06:16:18;0.52;;;0.40;;
28529;SDS011;15737;49.760;6.632;2023-07-13T06:18:44;1.65;;;0.73;;
28529;SDS011;15737;49.760;6.632;2023-07-13T06:21:12;1.55;;;0.60;;
28529;SDS011;15737;49.760;6.632;2023-07-13T06:23:42;1.17;;;0.70;;
28529;SDS011;15737;49.760;6.632;2023-07-13T06:26:08;0.55;;;0.47;;
28529;SDS011;15737;49.760;6.632;2023-07-13T06:28:34;0.43;;;0.43;;
28529;SDS011;15737;49.760;6.632;2023-07-13T06:31:00;2.22;;;0.70;;
28529;SDS011;15737;49.760;6.632;2023-07-13T06:33:26;0.68;;;0.50;;
28529;SDS011;15737;49.760;6.632;2023-07-13T06:35:52;1.45;;;0.50;;
28529;SDS011;15737;49.760;6.632;2023-07-13T06:38:19;1.30;;;0.70;;
28529;SDS011;15737;49.760;6.632;2023-07-13T06:40:46;0.80;;;0.50;;
28529;SDS011;15737;49.760;6.632;2023-07-13T06:43:11;1.10;;;0.55;;
28529;SDS011;15737;49.760;6.632;2023-07-13T06:45:40;2.65;;;0.70;;
28529;SDS011;15737;49.760;6.632;2023-07-13T06:48:10;1.00;;;0.30;;
28529;SDS011;15737;49.760;6.632;2023-07-13T06:50:36;0.75;;;0.30;;
28529;SDS011;15737;49.760;6.632;2023-07-13T06:53:02;2.03;;;0.38;;
28529;SDS011;15737;49.760;6.632;2023-07-13T06:55:27;0.30;;;0.30;;
28529;SDS011;15737;49.760;6.632;2023-07-13T06:57:53;2.50;;;0.60;;
28529;SDS011;15737;49.760;6.632;2023-07-13T07:00:18;0.40;;;0.40;;
28529;SDS011;15737;49.760;6.632;2023-07-13T07:02:44;0.52;;;0.40;;
28529;SDS011;15737;49.760;6.632;2023-07-13T07:05:09;2.25;;;0.57;;
28529;SDS011;15737;49.760;6.632;2023-07-13T07:07:35;1.63;;;0.25;;
28529;SDS011;15737;49.760;6.632;2023-07-13T07:10:00;0.40;;;0.40;;
28529;SDS011;15737;49.760;6.632;2023-07-13T07:12:26;0.73;;;0.50;;
28529;SDS011;15737;49.760;6.632;2023-07-13T07:14:53;1.40;;;1.23;;
28529;SDS011;15737;49.760;6.632;2023-07-13T07:17:18;1.80;;;1.70;;
28529;SDS011;15737;49.760;6.632;2023-07-13T07:19:44;2.55;;;2.45;;
28529;SDS011;15737;49.760;6.632;2023-07-13T07:22:10;2.72;;;2.53;;
28529;SDS011;15737;49.760;6.632;2023-07-13T07:24:35;0.82;;;0.82;;
28529;SDS011;15737;49.760;6.632;2023-07-13T07:27:01;0.88;;;0.52;;
28529;SDS011;15737;49.760;6.632;2023-07-13T07:29:26;0.50;;;0.50;;
28529;SDS011;15737;49.760;6.632;2023-07-13T07:31:52;3.30;;;0.60;;
28529;SDS011;15737;49.760;6.632;2023-07-13T07:34:18;0.60;;;0.57;;
28529;SDS011;15737;49.760;6.632;2023-07-13T07:36:44;0.50;;;0.50;;
28529;SDS011;15737;49.760;6.632;2023-07-13T07:39:10;1.02;;;0.98;;
28529;SDS011;15737;49.760;6.632;2023-07-13T07:41:36;0.50;;;0.50;;
28529;SDS011;15737;49.760;6.632;2023-07-13T07:44:02;0.55;;;0.55;;
28529;SDS011;15737;49.760;6.632;2023-07-13T07:46:28;0.25;;;0.25;;
28529;SDS011;15737;49.760;6.632;2023-07-13T07:48:54;0.35;;;0.35;;
28529;SDS011;15737;49.760;6.632;2023-07-13T07:51:20;0.88;;;0.57;;
28529;SDS011;15737;49.760;6.632;2023-07-13T07:53:46;0.98;;;0.40;;
28529;SDS011;15737;49.760;6.632;2023-07-13T07:56:12;0.98;;;0.50;;
28529;SDS011;15737;49.760;6.632;2023-07-13T07:58:38;0.38;;;0.35;;
28529;SDS011;15737;49.760;6.632;2023-07-13T08:01:06;0.40;;;0.40;;
28529;SDS011;15737;49.760;6.632;2023-07-13T08:03:32;0.82;;;0.32;;
28529;SDS011;15737;49.760;6.632;2023-07-13T08:05:57;0.57;;;0.30;;
28529;SDS011;15737;49.760;6.632;2023-07-13T08:08:23;0.50;;;0.50;;
28529;SDS011;15737;49.760;6.632;2023-07-13T08:10:49;0.40;;;0.40;;
28529;SDS011;15737;49.760;6.632;2023-07-13T08:13:15;0.32;;;0.32;;
28529;SDS011;15737;49.760;6.632;2023-07-13T08:15:40;1.02;;;0.20;;
28529;SDS011;15737;49.760;6.632;2023-07-13T08:18:06;0.43;;;0.32;;
28529;SDS011;15737;49.760;6.632;2023-07-13T08:20:36;1.02;;;0.50;;
28529;SDS011;15737;49.760;6.632;2023-07-13T08:23:03;0.85;;;0.35;;
28529;SDS011;15737;49.760;6.632;2023-07-13T08:25:29;0.77;;;0.40;;
28529;SDS011;15737;49.760;6.632;2023-07-13T08:27:54;1.33;;;0.50;;
28529;SDS011;15737;49.760;6.632;2023-07-13T08:30:20;0.30;;;0.30;;
28529;SDS011;15737;49.760;6.632;2023-07-13T08:32:45;0.43;;;0.43;;
28529;SDS011;15737;49.760;6.632;2023-07-13T08:35:11;1.90;;;0.40;;
28529;SDS011;15737;49.760;6.632;2023-07-13T08:37:38;0.47;;;0.47;;
28529;SDS011;15737;49.760;6.632;2023-07-13T08:40:04;1.02;;;0.40;;
28529;SDS011;15737;49.760;6.632;2023-07-13T08:47:48;0.65;;;0.50;;
28529;SDS011;15737;49.760;6.632;2023-07-13T08:50:46;0.70;;;0.40;;
28529;SDS011;15737;49.760;6.632;2023-07-13T08:53:18;0.85;;;0.38;;
28529;SDS011;15737;49.760;6.632;2023-07-13T08:55:46;0.32;;;0.32;;
28529;SDS011;15737;49.760;6.632;2023-07-13T08:58:12;0.57;;;0.30;;
28529;SDS011;15737;49.760;6.632;2023-07-13T09:00:53;1.05;;;0.55;;
28529;SDS011;15737;49.760;6.632;2023-07-13T09:03:31;0.60;;;0.50;;
28529;SDS011;15737;49.760;6.632;2023-07-13T09:06:04;1.55;;;0.60;;
28529;SDS011;15737;49.760;6.632;2023-07-13T09:17:11;0.20;;;0.20;;
28529;SDS011;15737;49.760;6.632;2023-07-13T09:19:41;0.17;;;0.17;;
28529;SDS011;15737;49.760;6.632;2023-07-13T09:22:11;0.65;;;0.40;;
28529;SDS011;15737;49.760;6.632;2023-07-13T09:24:46;0.25;;;0.25;;
28529;SDS011;15737;49.760;6.632;2023-07-13T09:27:17;0.65;;;0.47;;
28529;SDS011;15737;49.760;6.632;2023-07-13T09:30:07;0.65;;;0.52;;
28529;SDS011;15737;49.760;6.632;2023-07-13T09:32:41;0.65;;;0.50;;
28529;SDS011;15737;49.760;6.632;2023-07-13T09:35:10;0.90;;;0.40;;
28529;SDS011;15737;49.760;6.632;2023-07-13T09:37:38;0.20;;;0.10;;
28529;SDS011;15737;49.760;6.632;2023-07-13T09:40:08;0.40;;;0.40;;
28529;SDS011;15737;49.760;6.632;2023-07-13T09:42:41;0.90;;;0.40;;
28529;SDS011;15737;49.760;6.632;2023-07-13T09:45:07;0.65;;;0.40;;
28529;SDS011;15737;49.760;6.632;2023-07-13T09:47:38;0.32;;;0.32;;
28529;SDS011;15737;49.760;6.632;2023-07-13T09:50:14;0.30;;;0.30;;
28529;SDS011;15737;49.760;6.632;2023-07-13T09:52:46;0.55;;;0.40;;
28529;SDS011;15737;49.760;6.632;2023-07-13T09:55:23;0.38;;;0.38;;
28529;SDS011;15737;49.760;6.632;2023-07-13T09:57:55;0.90;;;0.40;;
28529;SDS011;15737;49.760;6.632;2023-07-13T10:03:13;0.50;;;0.15;;
28529;SDS011;15737;49.760;6.632;2023-07-13T10:05:44;0.32;;;0.32;;
28529;SDS011;15737;49.760;6.632;2023-07-13T10:08:31;0.38;;;0.38;;
28529;SDS011;15737;49.760;6.632;2023-07-13T10:11:01;0.35;;;0.35;;
28529;SDS011;15737;49.760;6.632;2023-07-13T10:13:35;0.63;;;0.63;;
28529;SDS011;15737;49.760;6.632;2023-07-13T10:16:06;0.30;;;0.30;;
28529;SDS011;15737;49.760;6.632;2023-07-13T10:18:40;0.38;;;0.38;;
28529;SDS011;15737;49.760;6.632;2023-07-13T10:21:19;0.35;;;0.32;;
28529;SDS011;15737;49.760;6.632;2023-07-13T10:26:53;1.55;;;0.40;;
28529;SDS011;15737;49.760;6.632;2023-07-13T10:29:25;0.68;;;0.43;;
28529;SDS011;15737;49.760;6.632;2023-07-13T10:31:52;0.17;;;0.17;;
28529;SDS011;15737;49.760;6.632;2023-07-13T10:34:18;0.10;;;0.10;;
28529;SDS011;15737;49.760;6.632;2023-07-13T10:36:45;0.52;;;0.52;;
28529;SDS011;15737;49.760;6.632;2023-07-13T10:39:14;0.20;;;0.20;;
28529;SDS011;15737;49.760;6.632;2023-07-13T10:41:46;0.40;;;0.40;;
28529;SDS011;15737;49.760;6.632;2023-07-13T10:44:32;0.30;;;0.30;;
28529;SDS011;15737;49.760;6.632;2023-07-13T10:46:59;0.32;;;0.32;;
28529;SDS011;15737;49.760;6.632;2023-07-13T10:49:27;0.25;;;0.25;;
28529;SDS011;15737;49.760;6.632;2023-07-13T10:51:55;0.70;;;0.40;;
28529;SDS011;15737;49.760;6.632;2023-07-13T10:57:18;1.00;;;0.40;;
28529;SDS011;15737;49.760;6.632;2023-07-13T11:02:28;0.32;;;0.32;;
28529;SDS011;15737;49.760;6.632;2023-07-13T11:04:54;0.40;;;0.40;;
28529;SDS011;15737;49.760;6.632;2023-07-13T11:07:23;0.75;;;0.43;;
28529;SDS011;15737;49.760;6.632;2023-07-13T11:09:55;0.43;;;0.30;;
28529;SDS011;15737;49.760;6.632;2023-07-13T11:22:44;0.95;;;0.80;;
28529;SDS011;15737;49.760;6.632;2023-07-13T11:25:28;0.40;;;0.40;;
28529;SDS011;15737;49.760;6.632;2023-07-13T11:28:30;0.50;;;0.30;;
28529;SDS011;15737;49.760;6.632;2023-07-13T11:31:15;0.38;;;0.38;;
28529;SDS011;15737;49.760;6.632;2023-07-13T11:33:58;0.90;;;0.43;;
28529;SDS011;15737;49.760;6.632;2023-07-13T11:36:50;0.40;;;0.40;;
28529;SDS011;15737;49.760;6.632;2023-07-13T11:42:03;0.22;;;0.22;;
28529;SDS011;15737;49.760;6.632;2023-07-13T11:44:46;0.35;;;0.35;;
28529;SDS011;15737;49.760;6.632;2023-07-13T11:47:24;0.68;;;0.45;;
28529;SDS011;15737;49.760;6.632;2023-07-13T11:50:04;0.40;;;0.40;;
28529;SDS011;15737;49.760;6.632;2023-07-13T11:52:59;0.73;;;0.60;;
28529;SDS011;15737;49.760;6.632;2023-07-13T11:55:37;0.30;;;0.30;;
28529;SDS011;15737;49.760;6.632;2023-07-13T11:58:19;1.00;;;0.40;;
28529;SDS011;15737;49.760;6.632;2023-07-13T12:01:00;0.20;;;0.20;;
28529;SDS011;15737;49.760;6.632;2023-07-13T12:03:46;0.10;;;0.10;;
28529;SDS011;15737;49.760;6.632;2023-07-13T12:06:29;0.20;;;0.20;;
28529;SDS011;15737;49.760;6.632;2023-07-13T12:09:03;0.20;;;0.20;;
28529;SDS011;15737;49.760;6.632;2023-07-13T12:11:44;1.95;;;0.40;;
28529;SDS011;15737;49.760;6.632;2023-07-13T12:14:13;2.17;;;0.50;;
28529;SDS011;15737;49.760;6.632;2023-07-13T12:16:40;0.40;;;0.40;;
28529;SDS011;15737;49.760;6.632;2023-07-13T12:19:14;0.20;;;0.20;;
28529;SDS011;15737;49.760;6.632;2023-07-13T12:21:50;0.50;;;0.40;;
28529;SDS011;15737;49.760;6.632;2023-07-13T12:24:30;0.20;;;0.20;;
28529;SDS011;15737;49.760;6.632;2023-07-13T12:30:03;0.30;;;0.30;;
28529;SDS011;15737;49.760;6.632;2023-07-13T12:33:07;2.45;;;0.38;;
28529;SDS011;15737;49.760;6.632;2023-07-13T12:35:49;0.20;;;0.20;;
28529;SDS011;15737;49.760;6.632;2023-07-13T12:38:30;0.20;;;0.20;;
28529;SDS011;15737;49.760;6.632;2023-07-13T12:41:09;0.30;;;0.30;;
28529;SDS011;15737;49.760;6.632;2023-07-13T12:43:48;0.30;;;0.30;;
28529;SDS011;15737;49.760;6.632;2023-07-13T12:46:31;0.32;;;0.32;;
28529;SDS011;15737;49.760;6.632;2023-07-13T12:49:14;0.60;;;0.60;;
28529;SDS011;15737;49.760;6.632;2023-07-13T12:51:57;2.15;;;0.50;;
28529;SDS011;15737;49.760;6.632;2023-07-13T12:54:55;0.73;;;0.40;;
28529;SDS011;15737;49.760;6.632;2023-07-13T13:00:47;0.40;;;0.40;;
28529;SDS011;15737;49.760;6.632;2023-07-13T13:03:31;0.50;;;0.50;;
28529;SDS011;15737;49.760;6.632;2023-07-13T13:06:24;1.33;;;0.45;;
28529;SDS011;15737;49.760;6.632;2023-07-13T13:08:59;0.40;;;0.40;;
28529;SDS011;15737;49.760;6.632;2023-07-13T13:11:47;0.77;;;0.50;;
28529;SDS011;15737;49.760;6.632;2023-07-13T13:14:27;0.50;;;0.50;;
28529;SDS011;15737;49.760;6.632;2023-07-13T13:17:15;0.20;;;0.20;;
28529;SDS011;15737;49.760;6.632;2023-07-13T13:19:54;0.52;;;0.30;;
28529;SDS011;15737;49.760;6.632;2023-07-13T13:22:32;0.50;;;0.50;;
28529;SDS011;15737;49.760;6.632;2023-07-13T13:25:15;0.75;;;0.50;;
28529;SDS011;15737;49.760;6.632;2023-07-13T13:27:54;0.98;;;0.43;;
28529;SDS011;15737;49.760;6.632;2023-07-13T13:30:37;0.30;;;0.30;;
28529;SDS011;15737;49.760;6.632;2023-07-13T13:33:17;1.35;;;0.50;;
28529;SDS011;15737;49.760;6.632;2023-07-13T13:35:58;4.85;;;0.50;;
28529;SDS011;15737;49.760;6.632;2023-07-13T13:38:35;0.55;;;0.40;;
28529;SDS011;15737;49.760;6.632;2023-07-13T13:41:12;0.50;;;0.50;;
28529;SDS011;15737;49.760;6.632;2023-07-13T13:43:53;0.05;;;0.05;;
28529;SDS011;15737;49.760;6.632;2023-07-13T13:46:36;0.30;;;0.30;;
28529;SDS011;15737;49.760;6.632;2023-07-13T13:49:24;0.10;;;0.10;;
28529;SDS011;15737;49.760;6.632;2023-07-13T13:52:04;0.40;;;0.40;;
28529;SDS011;15737;49.760;6.632;2023-07-13T13:54:43;0.68;;;0.40;;
28529;SDS011;15737;49.760;6.632;2023-07-13T13:57:25;0.85;;;0.60;;
28529;SDS011;15737;49.760;6.632;2023-07-13T14:00:02;0.55;;;0.38;;
28529;SDS011;15737;49.760;6.632;2023-07-13T14:02:38;0.82;;;0.40;;
28529;SDS011;15737;49.760;6.632;2023-07-13T14:05:25;0.55;;;0.40;;
28529;SDS011;15737;49.760;6.632;2023-07-13T14:08:00;0.55;;;0.47;;
28529;SDS011;15737;49.760;6.632;2023-07-13T14:10:49;0.30;;;0.30;;
28529;SDS011;15737;49.760;6.632;2023-07-13T14:13:32;0.28;;;0.28;;
28529;SDS011;15737;49.760;6.632;2023-07-13T14:16:17;0.20;;;0.20;;
28529;SDS011;15737;49.760;6.632;2023-07-13T14:18:59;0.55;;;0.47;;
28529;SDS011;15737;49.760;6.632;2023-07-13T14:21:40;0.10;;;0.10;;
28529;SDS011;15737;49.760;6.632;2023-07-13T14:24:20;0.20;;;0.20;;
28529;SDS011;15737;49.760;6.632;2023-07-13T14:26:58;0.50;;;0.40;;
28529;SDS011;15737;49.760;6.632;2023-07-13T14:29:36;0.93;;;0.40;;
28529;SDS011;15737;49.760;6.632;2023-07-13T14:32:18;0.30;;;0.30;;
28529;SDS011;15737;49.760;6.632;2023-07-13T14:34:57;0.25;;;0.25;;
28529;SDS011;15737;49.760;6.632;2023-07-13T14:37:44;0.28;;;0.20;;
28529;SDS011;15737;49.760;6.632;2023-07-13T14:40:27;0.70;;;0.55;;
28529;SDS011;15737;49.760;6.632;2023-07-13T14:43:08;0.65;;;0.40;;
28529;SDS011;15737;49.760;6.632;2023-07-13T14:45:45;2.20;;;0.40;;
28529;SDS011;15737;49.760;6.632;2023-07-13T14:48:23;0.50;;;0.50;;
28529;SDS011;15737;49.760;6.632;2023-07-13T14:51:02;0.65;;;0.35;;
28529;SDS011;15737;49.760;6.632;2023-07-13T14:53:28;0.30;;;0.30;;
28529;SDS011;15737;49.760;6.632;2023-07-13T14:55:54;0.40;;;0.40;;
28529;SDS011;15737;49.760;6.632;2023-07-13T14:58:19;0.30;;;0.30;;
28529;SDS011;15737;49.760;6.632;2023-07-13T15:00:45;0.65;;;0.40;;
28529;SDS011;15737;49.760;6.632;2023-07-13T15:03:16;1.20;;;0.70;;
28529;SDS011;15737;49.760;6.632;2023-07-13T15:05:46;1.05;;;0.60;;
28529;SDS011;15737;49.760;6.632;2023-07-13T15:08:12;0.50;;;0.50;;
28529;SDS011;15737;49.760;6.632;2023-07-13T15:10:38;0.43;;;0.43;;
28529;SDS011;15737;49.760;6.632;2023-07-13T15:13:17;0.95;;;0.40;;
28529;SDS011;15737;49.760;6.632;2023-07-13T15:15:45;0.63;;;0.40;;
28529;SDS011;15737;49.760;6.632;2023-07-13T15:18:13;0.40;;;0.40;;
28529;SDS011;15737;49.760;6.632;2023-07-13T15:20:41;0.43;;;0.43;;
28529;SDS011;15737;49.760;6.632;2023-07-13T15:23:10;1.40;;;0.88;;
28529;SDS011;15737;49.760;6.632;2023-07-13T15:25:37;0.73;;;0.45;;
28529;SDS011;15737;49.760;6.632;2023-07-13T15:28:03;1.10;;;0.50;;
28529;SDS011;15737;49.760;6.632;2023-07-13T15:30:34;0.98;;;0.40;;
28529;SDS011;15737;49.760;6.632;2023-07-13T15:33:16;0.85;;;0.55;;
28529;SDS011;15737;49.760;6.632;2023-07-13T15:35:47;0.40;;;0.40;;
28529;SDS011;15737;49.760;6.632;2023-07-13T15:38:18;0.30;;;0.30;;
28529;SDS011;15737;49.760;6.632;2023-07-13T15:40:56;0.50;;;0.50;;
28529;SDS011;15737;49.760;6.632;2023-07-13T15:43:22;0.30;;;0.30;;
28529;SDS011;15737;49.760;6.632;2023-07-13T15:45:48;1.38;;;0.40;;
28529;SDS011;15737;49.760;6.632;2023-07-13T15:48:17;3.50;;;0.70;;
28529;SDS011;15737;49.760;6.632;2023-07-13T15:50:48;1.50;;;0.60;;
28529;SDS011;15737;49.760;6.632;2023-07-13T15:53:26;0.50;;;0.50;;
28529;SDS011;15737;49.760;6.632;2023-07-13T15:55:55;0.40;;;0.40;;
28529;SDS011;15737;49.760;6.632;2023-07-13T15:58:20;0.52;;;0.47;;
28529;SDS011;15737;49.760;6.632;2023-07-13T16:00:46;0.55;;;0.55;;
28529;SDS011;15737;49.760;6.632;2023-07-13T16:03:16;0.47;;;0.47;;
28529;SDS011;15737;49.760;6.632;2023-07-13T16:05:41;1.25;;;0.55;;
28529;SDS011;15737;49.760;6.632;2023-07-13T16:08:12;0.60;;;0.60;;